createdAt,value
2022-09-03T00:04:44.172Z,1.10
2022-09-03T00:09:52.079Z,1.30
2022-09-03T00:15:02.054Z,1.20
2022-09-03T00:20:11.679Z,1.00
2022-09-03T00:25:18.747Z,1.00
2022-09-03T00:30:24.346Z,1.00
2022-09-03T00:35:31.491Z,1.10
2022-09-03T00:40:46.250Z,1.00
2022-09-03T00:46:03.300Z,1.10
2022-09-03T00:51:12.839Z,1.10
2022-09-03T00:56:23.055Z,1.20
2022-09-03T01:01:36.625Z,0.90
2022-09-03T01:06:47.493Z,1.15
2022-09-03T01:12:00.515Z,1.13
2022-09-03T01:17:13.868Z,1.08
2022-09-03T01:22:38.585Z,1.10
2022-09-03T01:27:54.308Z,1.20
2022-09-03T01:33:06.904Z,1.08
2022-09-03T01:38:24.442Z,1.05
2022-09-03T01:43:43.375Z,1.13
2022-09-03T01:48:59.191Z,1.10
2022-09-03T01:54:42.697Z,1.10
2022-09-03T01:59:53.909Z,1.50
2022-09-03T02:05:03.819Z,1.45
2022-09-03T02:10:09.123Z,1.00
2022-09-03T02:15:15.388Z,1.20
2022-09-03T02:20:23.136Z,1.20
2022-09-03T02:25:34.085Z,1.13
2022-09-03T02:30:37.111Z,1.17
2022-09-03T02:35:43.105Z,1.02
2022-09-03T02:40:46.644Z,1.23
2022-09-03T02:45:55.006Z,1.05
2022-09-03T02:50:59.288Z,1.10
2022-09-03T02:56:02.848Z,1.17
2022-09-03T03:01:07.553Z,1.10
2022-09-03T03:06:14.448Z,1.10
2022-09-03T03:11:18.561Z,1.20
2022-09-03T03:16:21.560Z,1.20
2022-09-03T03:21:25.893Z,1.10
2022-09-03T03:26:29.468Z,1.20
2022-09-03T03:31:33.171Z,1.30
2022-09-03T03:36:37.635Z,1.20
2022-09-03T03:41:40.530Z,1.00
2022-09-03T03:46:43.546Z,1.10
2022-09-03T03:51:48.023Z,1.35
2022-09-03T03:56:55.591Z,1.30
2022-09-03T04:01:58.819Z,1.50
2022-09-03T04:07:03.139Z,1.30
2022-09-03T04:12:08.795Z,1.38
2022-09-03T04:17:11.749Z,1.40
2022-09-03T04:22:16.759Z,1.30
2022-09-03T04:27:19.563Z,1.30
2022-09-03T04:32:39.748Z,1.30
2022-09-03T04:37:43.935Z,1.38
2022-09-03T04:42:46.766Z,1.30
2022-09-03T04:47:58.106Z,1.23
2022-09-03T04:53:07.910Z,1.30
2022-09-03T04:58:11.168Z,1.20
2022-09-03T05:03:14.005Z,1.17
2022-09-03T05:08:18.618Z,1.42
2022-09-03T05:13:21.481Z,1.08
2022-09-03T05:18:24.497Z,1.20
2022-09-03T05:23:32.284Z,1.30
2022-09-03T05:28:40.027Z,1.23
2022-09-03T05:33:44.496Z,1.08
2022-09-03T05:38:48.949Z,1.30
2022-09-03T05:43:56.079Z,1.83
2022-09-03T05:48:59.954Z,1.10
2022-09-03T05:54:05.172Z,1.30
2022-09-03T05:59:10.138Z,1.20
2022-09-03T06:04:28.887Z,1.40
2022-09-03T06:09:33.232Z,1.40
2022-09-03T06:14:36.205Z,1.40
2022-09-03T06:19:39.187Z,1.27
2022-09-03T06:24:43.794Z,1.30
2022-09-03T06:29:46.800Z,1.15
2022-09-03T06:34:49.630Z,1.10
2022-09-03T06:39:54.805Z,1.35
2022-09-03T06:44:57.967Z,1.00
2022-09-03T06:50:02.099Z,1.23
2022-09-03T06:55:15.672Z,1.20
2022-09-03T07:00:21.337Z,1.20
2022-09-03T07:05:31.342Z,1.08
2022-09-03T07:10:38.714Z,1.30
2022-09-03T07:15:42.649Z,0.93
2022-09-03T07:20:50.628Z,1.00
2022-09-03T07:26:04.119Z,1.20
2022-09-03T07:31:16.938Z,1.25
2022-09-03T07:36:21.989Z,1.20
2022-09-03T07:41:30.911Z,1.30
2022-09-03T07:46:46.230Z,1.20
2022-09-03T07:51:53.167Z,1.20
2022-09-03T07:57:02.325Z,1.17
2022-09-03T08:02:07.701Z,1.27
2022-09-03T08:07:20.638Z,1.20
2022-09-03T08:12:25.319Z,1.23
2022-09-03T08:17:28.427Z,1.55
2022-09-03T08:22:31.683Z,1.10
2022-09-03T08:27:37.487Z,1.08
2022-09-03T08:32:40.832Z,1.17
2022-09-03T08:37:44.128Z,1.70
2022-09-03T08:43:06.867Z,1.27
2022-09-03T08:48:15.973Z,1.30
2022-09-03T08:53:25.076Z,1.20
2022-09-03T08:58:34.219Z,1.20
2022-09-03T09:03:49.234Z,1.25
2022-09-03T09:09:04.575Z,1.30
2022-09-03T09:14:18.570Z,1.02
2022-09-03T09:19:38.896Z,1.40
2022-09-03T09:24:48.505Z,1.23
2022-09-03T09:29:55.873Z,1.33
2022-09-03T09:35:01.159Z,1.30
2022-09-03T09:40:14.808Z,1.10
2022-09-03T09:45:26.487Z,1.20
2022-09-03T09:51:06.681Z,0.95
2022-09-03T09:56:21.369Z,1.15
2022-09-03T10:01:30.253Z,1.20
2022-09-03T10:06:54.035Z,1.05
2022-09-03T10:12:14.601Z,1.00
2022-09-03T10:17:28.379Z,0.90
2022-09-03T10:22:57.107Z,1.17
2022-09-03T10:28:02.175Z,1.10
2022-09-03T10:33:12.771Z,1.10
2022-09-03T10:38:23.329Z,1.00
2022-09-03T10:43:47.715Z,1.10
2022-09-03T10:49:17.016Z,1.10
2022-09-03T10:54:37.416Z,1.20
2022-09-03T10:59:59.722Z,1.00
2022-09-03T11:05:11.042Z,1.27
2022-09-03T11:16:33.919Z,1.08
2022-09-03T11:21:46.143Z,1.13
2022-09-03T11:27:02.501Z,1.30
2022-09-03T11:32:57.667Z,1.10
2022-09-03T11:38:05.189Z,1.52
2022-09-03T11:48:45.951Z,0.90
2022-09-03T11:53:59.329Z,1.20
2022-09-03T11:59:19.658Z,1.05
2022-09-03T12:04:29.903Z,1.10
2022-09-03T12:10:06.157Z,1.10
2022-09-03T12:15:27.691Z,0.98
2022-09-03T12:20:30.886Z,1.20
2022-09-03T12:25:36.200Z,1.00
2022-09-03T12:30:39.743Z,1.10
2022-09-03T12:35:58.949Z,1.00
2022-09-03T12:46:33.193Z,1.17
2022-09-03T12:51:51.114Z,1.10
2022-09-03T12:57:01.701Z,1.00
2022-09-03T13:02:07.695Z,1.38
2022-09-03T13:07:16.924Z,1.00
2022-09-03T13:12:33.311Z,1.00
2022-09-03T13:17:56.416Z,0.90
2022-09-03T13:23:15.613Z,0.82
2022-09-03T13:28:31.849Z,1.00
2022-09-03T13:33:39.772Z,1.10
2022-09-03T13:43:58.108Z,1.13
2022-09-03T13:49:27.268Z,1.20
2022-09-03T13:54:48.565Z,1.25
2022-09-03T13:59:59.532Z,1.13
2022-09-03T14:05:07.663Z,1.50
2022-09-03T14:10:22.061Z,1.35
2022-09-03T14:15:31.682Z,1.00
2022-09-03T14:20:42.502Z,1.20
2022-09-03T14:25:54.465Z,1.20
2022-09-03T14:31:08.323Z,1.17
2022-09-03T14:36:20.491Z,1.92
2022-09-03T14:41:44.833Z,1.15
2022-09-03T14:47:02.494Z,1.00
2022-09-03T14:52:24.317Z,1.23
2022-09-03T14:57:50.496Z,1.20
2022-09-03T15:03:28.437Z,1.15
2022-09-03T15:08:46.452Z,1.20
2022-09-03T15:13:53.841Z,1.25
2022-09-03T15:19:17.285Z,1.20
2022-09-03T15:24:28.790Z,1.35
2022-09-03T15:29:47.356Z,1.20
2022-09-03T15:35:05.699Z,1.40
2022-09-03T15:40:18.675Z,1.23
2022-09-03T15:45:32.938Z,1.40
2022-09-03T15:50:50.116Z,1.13
2022-09-03T15:56:10.472Z,1.20
2022-09-03T16:01:27.016Z,0.95
2022-09-03T16:06:38.341Z,1.48
2022-09-03T16:11:53.306Z,1.00
2022-09-03T16:17:03.844Z,1.00
2022-09-03T16:22:15.223Z,1.35
2022-09-03T16:27:23.887Z,1.63
2022-09-03T16:32:37.116Z,1.15
2022-09-03T16:37:50.912Z,1.13
2022-09-03T16:43:07.312Z,1.00
2022-09-03T16:48:27.475Z,0.90
2022-09-03T16:53:52.232Z,1.00
2022-09-03T16:59:02.846Z,0.90
2022-09-03T17:04:35.459Z,1.05
2022-09-03T17:09:56.159Z,1.10
2022-09-03T17:15:14.644Z,1.20
2022-09-03T17:25:34.793Z,1.20
2022-09-03T17:30:45.081Z,1.52
2022-09-03T17:35:55.994Z,1.70
2022-09-03T17:41:12.895Z,1.85
2022-09-03T17:46:29.909Z,1.52
2022-09-03T17:51:42.451Z,1.80
2022-09-03T17:56:55.815Z,1.70
2022-09-03T18:02:04.945Z,1.95
2022-09-03T18:07:16.899Z,2.00
2022-09-03T18:12:33.520Z,1.98
2022-09-03T18:17:42.532Z,1.90
2022-09-03T18:23:09.161Z,2.10
2022-09-03T18:28:34.135Z,1.70
2022-09-03T18:33:55.841Z,2.40
2022-09-03T18:39:21.454Z,1.80
2022-09-03T18:45:12.373Z,2.08
2022-09-03T18:50:40.111Z,4.63
2022-09-03T18:56:14.407Z,1.80
2022-09-03T19:01:45.539Z,2.53
2022-09-03T19:07:17.407Z,2.20
2022-09-03T19:12:59.314Z,3.38
2022-09-03T19:18:46.414Z,3.15
2022-09-03T19:24:07.061Z,3.00
2022-09-03T19:29:43.394Z,3.17
2022-09-03T19:35:23.917Z,2.20
2022-09-03T19:40:59.371Z,2.15
2022-09-03T19:46:26.683Z,2.40
2022-09-03T19:51:53.462Z,2.72
2022-09-03T19:57:16.416Z,2.30
2022-09-03T20:02:36.729Z,1.80
2022-09-03T20:07:58.539Z,2.25
2022-09-03T20:13:08.267Z,2.20
2022-09-03T20:18:18.509Z,1.73
2022-09-03T20:23:31.534Z,2.08
2022-09-03T20:28:51.384Z,1.67
2022-09-03T20:34:05.450Z,1.50
2022-09-03T20:39:32.474Z,1.75
2022-09-03T20:44:50.485Z,1.80
2022-09-03T20:50:03.816Z,2.00
2022-09-03T20:55:13.666Z,1.67
2022-09-03T21:00:18.485Z,1.90
2022-09-03T21:05:28.117Z,1.75
2022-09-03T21:10:39.115Z,2.40
2022-09-03T21:15:56.458Z,1.85
2022-09-03T21:21:09.607Z,1.23
2022-09-03T21:26:21.389Z,1.73
2022-09-03T21:31:31.927Z,1.45
2022-09-03T21:36:44.401Z,1.33
2022-09-03T21:41:55.675Z,1.20
2022-09-03T21:47:02.584Z,1.52
2022-09-03T21:52:09.893Z,1.85
2022-09-03T21:57:25.894Z,1.50
2022-09-03T22:02:29.998Z,1.20
2022-09-03T22:07:44.981Z,1.05
2022-09-03T22:12:57.429Z,1.52
2022-09-03T22:18:07.362Z,1.15
2022-09-03T22:23:17.392Z,2.10
2022-09-03T22:28:29.374Z,1.42
2022-09-03T22:33:40.546Z,1.63
2022-09-03T22:39:16.503Z,1.48
2022-09-03T22:44:35.216Z,1.50
2022-09-03T22:49:50.159Z,1.52
2022-09-03T22:55:05.977Z,1.50
2022-09-03T23:00:13.905Z,1.20
2022-09-03T23:05:33.188Z,1.50
2022-09-03T23:10:56.319Z,1.38
2022-09-03T23:16:08.748Z,1.30
2022-09-03T23:21:22.193Z,1.40
2022-09-03T23:26:33.293Z,1.65
2022-09-03T23:31:38.186Z,1.30
2022-09-03T23:42:30.156Z,1.20
2022-09-03T23:47:45.637Z,1.13
2022-09-03T23:53:18.250Z,1.55
2022-09-03T23:58:30.319Z,1.50
